Time;durP1;ratioP1;P1;durP2;ratioP2;P2;SDS_P1;SDS_P2;PMS_P1;PMS_P2;Temp;Humidity;BMP_temperature;BMP_pressure;BME280_temperature;BME280_humidity;BME280_pressure;Samples;Min_cycle;Max_cycle;Signal;HPM_P1;HPM_P2
2023/05/27 00:01:29;;;;;;;10.93;4.50;;;9.90;99.90;;;;;;5156833;27;20287;-77
2023/05/27 00:03:56;;;;;;;12.40;4.93;;;10.00;99.90;;;;;;5135659;27;20228;-79
2023/05/27 00:06:23;;;;;;;17.30;4.57;;;10.00;99.90;;;;;;5136163;27;20206;-78
2023/05/27 00:08:50;;;;;;;15.70;5.23;;;10.00;99.90;;;;;;5160285;27;20196;-78
2023/05/27 00:11:16;;;;;;;13.47;4.80;;;10.00;99.90;;;;;;5136656;27;20216;-78
2023/05/27 00:13:43;;;;;;;12.53;4.57;;;9.80;99.90;;;;;;5159459;27;20220;-78
2023/05/27 00:16:12;;;;;;;17.37;5.17;;;9.70;99.90;;;;;;5144221;27;20273;-78
2023/05/27 00:18:39;;;;;;;10.40;5.00;;;9.40;99.90;;;;;;5158020;27;20207;-78
2023/05/27 00:21:06;;;;;;;12.33;5.63;;;9.40;99.90;;;;;;5137580;27;20660;-77
2023/05/27 00:23:32;;;;;;;11.67;5.10;;;9.50;99.90;;;;;;5156856;27;20219;-78
2023/05/27 00:25:59;;;;;;;13.23;5.13;;;9.40;99.90;;;;;;5137961;27;20208;-78
2023/05/27 00:28:28;;;;;;;14.87;4.87;;;9.30;99.90;;;;;;5139225;27;20211;-77
2023/05/27 00:30:55;;;;;;;14.20;5.20;;;9.40;99.90;;;;;;5147889;27;20412;-78
2023/05/27 00:33:24;;;;;;;14.00;5.03;;;9.20;99.90;;;;;;5140498;27;20256;-77
2023/05/27 00:35:50;;;;;;;17.43;5.63;;;9.20;99.90;;;;;;5143331;27;20216;-78
2023/05/27 00:38:17;;;;;;;16.17;5.67;;;9.10;99.90;;;;;;5126824;27;20197;-78
2023/05/27 00:40:44;;;;;;;13.53;5.33;;;9.10;99.90;;;;;;5130435;27;20228;-77
2023/05/27 00:43:11;;;;;;;12.23;4.77;;;9.00;99.90;;;;;;5139492;27;20228;-78
2023/05/27 00:45:38;;;;;;;15.23;5.27;;;9.00;99.90;;;;;;5146088;27;20209;-78
2023/05/27 00:48:05;;;;;;;11.63;5.20;;;9.00;99.90;;;;;;5140976;27;20552;-76
2023/05/27 00:50:33;;;;;;;17.43;6.07;;;9.00;99.90;;;;;;5145412;27;20762;-78
2023/05/27 00:53:00;;;;;;;16.87;5.20;;;8.90;99.90;;;;;;5137715;27;20236;-78
2023/05/27 00:55:27;;;;;;;16.07;5.97;;;8.80;99.90;;;;;;5150840;27;20196;-77
2023/05/27 00:57:54;;;;;;;13.07;6.07;;;8.90;99.90;;;;;;5142091;27;20196;-77
2023/05/27 01:00:21;;;;;;;15.70;5.23;;;8.80;99.90;;;;;;5147809;27;20196;-77
2023/05/27 01:02:49;;;;;;;14.23;5.53;;;8.70;99.90;;;;;;5131502;27;20648;-77
2023/05/27 01:05:19;;;;;;;18.00;5.63;;;8.70;99.90;;;;;;5134528;27;20304;-76
2023/05/27 01:08:04;;;;;;;15.13;6.00;;;8.70;99.90;;;;;;5134605;27;20287;-76
2023/05/27 01:10:37;;;;;;;15.73;5.47;;;8.50;99.90;;;;;;5133286;27;20211;-77
2023/05/27 01:13:12;;;;;;;16.30;5.40;;;8.40;99.90;;;;;;5120891;27;20290;-77
2023/05/27 01:15:40;;;;;;;15.93;6.50;;;8.30;99.90;;;;;;5128171;27;20192;-77
2023/05/27 01:18:09;;;;;;;18.67;6.20;;;8.30;99.90;;;;;;5141584;27;20205;-77
2023/05/27 01:20:40;;;;;;;11.93;5.73;;;8.60;99.90;;;;;;5135076;27;20250;-76
2023/05/27 01:23:09;;;;;;;14.93;5.50;;;8.60;99.90;;;;;;5135913;27;20196;-77
2023/05/27 01:25:36;;;;;;;13.10;5.33;;;8.50;99.90;;;;;;5161190;27;20496;-78
2023/05/27 01:28:02;;;;;;;13.87;5.70;;;8.30;99.90;;;;;;5155032;27;20223;-77
2023/05/27 01:30:29;;;;;;;11.43;5.83;;;8.30;99.90;;;;;;5149461;27;20200;-77
2023/05/27 01:33:02;;;;;;;18.13;6.50;;;8.40;99.90;;;;;;5137375;27;20240;-76
2023/05/27 01:35:32;;;;;;;16.33;6.30;;;8.30;99.90;;;;;;5131276;27;20208;-78
2023/05/27 01:38:04;;;;;;;13.70;5.93;;;8.30;99.90;;;;;;5157795;27;20223;-77
2023/05/27 01:40:34;;;;;;;14.17;5.50;;;8.40;99.90;;;;;;5142470;27;20683;-76
2023/05/27 01:43:01;;;;;;;19.27;6.87;;;8.30;99.90;;;;;;5155038;27;20274;-76
2023/05/27 01:45:28;;;;;;;16.67;5.40;;;8.10;99.90;;;;;;5148771;27;20204;-77
2023/05/27 01:47:54;;;;;;;15.97;5.50;;;8.00;99.90;;;;;;5153850;27;20564;-78
2023/05/27 01:50:21;;;;;;;19.13;6.73;;;7.90;99.90;;;;;;5160200;27;20199;-77
2023/05/27 01:52:48;;;;;;;13.90;5.87;;;8.00;99.90;;;;;;5144764;27;20208;-78
2023/05/27 01:55:17;;;;;;;14.30;5.67;;;8.10;99.90;;;;;;5141802;27;20297;-78
2023/05/27 01:57:45;;;;;;;17.87;6.17;;;7.80;99.90;;;;;;5147701;27;20590;-76
2023/05/27 02:00:13;;;;;;;17.37;5.73;;;7.80;99.90;;;;;;5155807;27;20196;-77
2023/05/27 02:02:40;;;;;;;16.00;6.23;;;7.70;99.90;;;;;;5146391;27;20192;-76
2023/05/27 02:05:07;;;;;;;16.70;6.17;;;7.60;99.90;;;;;;5142289;27;20220;-78
2023/05/27 02:07:42;;;;;;;11.67;5.43;;;7.50;99.90;;;;;;5139989;28;20197;-77
2023/05/27 02:10:10;;;;;;;15.03;6.47;;;7.70;99.90;;;;;;5137063;27;20207;-77
2023/05/27 02:12:37;;;;;;;12.70;5.90;;;7.70;99.90;;;;;;5149163;27;20216;-77
2023/05/27 02:15:08;;;;;;;15.30;6.20;;;7.50;99.90;;;;;;5147405;27;20968;-78
2023/05/27 02:17:38;;;;;;;14.57;6.47;;;7.60;99.90;;;;;;5143184;27;20210;-76
2023/05/27 02:20:19;;;;;;;16.30;6.30;;;7.50;99.90;;;;;;5139582;27;20231;-77
2023/05/27 02:22:46;;;;;;;13.27;5.20;;;7.50;99.90;;;;;;5158820;27;20186;-79
2023/05/27 02:25:12;;;;;;;13.13;5.90;;;7.70;99.90;;;;;;5154860;27;20268;-76
2023/05/27 02:27:41;;;;;;;15.77;5.73;;;7.70;99.90;;;;;;5151528;27;20202;-77
2023/05/27 02:30:11;;;;;;;15.83;6.13;;;7.50;99.90;;;;;;5149153;27;20204;-78
2023/05/27 02:32:38;;;;;;;13.73;5.30;;;7.60;99.90;;;;;;5170916;27;20246;-79
2023/05/27 02:35:05;;;;;;;11.50;5.03;;;7.50;99.90;;;;;;5160484;27;20220;-77
2023/05/27 02:37:32;;;;;;;17.73;6.00;;;7.40;99.90;;;;;;5167058;27;20203;-78
2023/05/27 02:39:59;;;;;;;14.17;5.67;;;7.30;99.90;;;;;;5155749;27;20192;-79
2023/05/27 02:42:26;;;;;;;16.53;6.90;;;7.10;99.90;;;;;;5141701;27;20196;-78
2023/05/27 02:44:53;;;;;;;15.60;6.30;;;7.20;99.90;;;;;;5150198;27;20212;-79
2023/05/27 02:47:21;;;;;;;14.70;5.80;;;7.20;99.90;;;;;;5159009;27;20201;-76
2023/05/27 02:49:48;;;;;;;14.53;5.83;;;7.10;99.90;;;;;;5150541;27;20204;-77
2023/05/27 02:52:14;;;;;;;15.63;5.87;;;7.30;99.90;;;;;;5160872;27;20222;-78
2023/05/27 02:54:41;;;;;;;15.27;5.73;;;7.30;99.90;;;;;;5164344;27;20220;-79
2023/05/27 02:57:08;;;;;;;14.57;6.33;;;7.10;99.90;;;;;;5158124;27;20204;-78
2023/05/27 02:59:35;;;;;;;19.93;5.80;;;7.20;99.90;;;;;;5146731;27;20264;-79
2023/05/27 03:02:02;;;;;;;12.83;6.37;;;7.10;99.90;;;;;;5147512;27;20206;-77
2023/05/27 03:04:30;;;;;;;14.90;6.47;;;7.10;99.90;;;;;;5153813;27;20712;-78
2023/05/27 03:06:57;;;;;;;15.53;6.27;;;7.20;99.90;;;;;;5141442;27;20197;-76
2023/05/27 03:09:23;;;;;;;14.90;6.27;;;7.20;99.90;;;;;;5142619;27;20180;-76
2023/05/27 03:11:50;;;;;;;15.83;5.60;;;7.20;99.90;;;;;;5143657;27;20197;-77
2023/05/27 03:14:17;;;;;;;14.60;6.03;;;7.20;99.90;;;;;;5142643;27;20230;-76
2023/05/27 03:16:44;;;;;;;19.17;7.53;;;7.00;99.90;;;;;;5146425;27;20196;-78
2023/05/27 03:19:11;;;;;;;12.47;6.00;;;7.20;99.90;;;;;;5161782;27;20200;-77
2023/05/27 03:21:40;;;;;;;14.90;5.57;;;7.10;99.90;;;;;;5149848;27;20203;-78
2023/05/27 03:24:06;;;;;;;15.10;5.80;;;7.00;99.90;;;;;;5162913;27;20207;-78
2023/05/27 03:26:33;;;;;;;17.37;6.37;;;7.10;99.90;;;;;;5138783;27;20200;-76
2023/05/27 03:29:00;;;;;;;17.47;6.17;;;7.30;99.90;;;;;;5142461;27;20259;-76
2023/05/27 03:31:27;;;;;;;13.70;5.87;;;7.10;99.90;;;;;;5153474;27;20206;-77
2023/05/27 03:33:53;;;;;;;13.73;5.63;;;7.20;99.90;;;;;;5155839;27;20226;-76
2023/05/27 03:36:21;;;;;;;13.83;5.73;;;7.10;99.90;;;;;;5142698;27;20210;-77
2023/05/27 03:38:49;;;;;;;19.27;5.50;;;7.30;99.90;;;;;;5137028;27;20301;-75
2023/05/27 03:41:16;;;;;;;12.53;6.70;;;7.20;99.90;;;;;;5140638;27;20690;-76
2023/05/27 03:43:43;;;;;;;18.70;6.30;;;7.30;99.90;;;;;;5145683;27;20596;-76
2023/05/27 03:46:09;;;;;;;17.37;5.73;;;7.40;99.90;;;;;;5153029;27;20648;-78
2023/05/27 03:48:36;;;;;;;10.93;5.47;;;7.40;99.90;;;;;;5140996;27;20207;-77
2023/05/27 03:51:03;;;;;;;14.50;5.43;;;7.50;99.90;;;;;;5143494;27;20199;-78
2023/05/27 03:53:31;;;;;;;12.97;5.33;;;7.50;99.90;;;;;;5137552;27;20227;-78
2023/05/27 03:55:59;;;;;;;13.00;5.93;;;7.50;99.90;;;;;;5135756;27;20223;-77
2023/05/27 03:58:25;;;;;;;16.83;6.23;;;7.40;99.90;;;;;;5131456;27;20568;-77
2023/05/27 04:00:52;;;;;;;18.63;7.60;;;7.40;99.90;;;;;;5138043;27;20605;-75
2023/05/27 04:03:19;;;;;;;16.37;5.43;;;7.60;99.90;;;;;;5130529;27;20238;-77
2023/05/27 04:05:46;;;;;;;17.53;6.50;;;7.70;99.90;;;;;;5133960;27;20209;-77
2023/05/27 04:08:14;;;;;;;15.33;5.57;;;7.90;99.90;;;;;;5141326;27;20207;-76
2023/05/27 04:10:41;;;;;;;15.03;5.53;;;8.00;99.90;;;;;;5127720;27;20268;-77
2023/05/27 04:13:09;;;;;;;14.13;6.43;;;7.90;99.90;;;;;;5140551;27;20219;-77
2023/05/27 04:15:36;;;;;;;12.57;5.67;;;7.90;99.90;;;;;;5134834;27;20203;-76
2023/05/27 04:18:02;;;;;;;16.70;5.60;;;7.70;99.90;;;;;;5150720;27;20204;-77
2023/05/27 04:20:36;;;;;;;12.83;5.47;;;8.20;99.90;;;;;;5151122;27;20197;-76
2023/05/27 04:23:03;;;;;;;16.90;6.33;;;9.10;99.90;;;;;;5155078;27;20203;-78
2023/05/27 04:25:30;;;;;;;13.50;5.87;;;9.30;99.90;;;;;;5135949;27;20200;-78
2023/05/27 04:27:57;;;;;;;17.20;6.17;;;9.30;99.90;;;;;;5150023;27;20566;-77
2023/05/27 04:30:25;;;;;;;13.47;5.00;;;9.10;99.90;;;;;;5143592;27;20638;-76
2023/05/27 04:32:52;;;;;;;16.37;5.20;;;9.00;99.90;;;;;;5135808;27;20259;-77
2023/05/27 04:35:19;;;;;;;14.63;5.10;;;8.80;99.90;;;;;;5129263;27;20225;-77
2023/05/27 04:37:47;;;;;;;13.57;5.10;;;8.50;99.90;;;;;;5141538;27;20200;-78
2023/05/27 04:40:14;;;;;;;16.57;6.57;;;8.60;99.90;;;;;;5138123;27;20205;-76
2023/05/27 04:42:43;;;;;;;17.73;6.63;;;8.80;99.90;;;;;;5146107;27;20198;-78
2023/05/27 04:45:11;;;;;;;17.63;5.90;;;8.80;99.90;;;;;;5144572;27;20212;-77
2023/05/27 04:47:40;;;;;;;15.27;5.20;;;8.80;99.90;;;;;;5136736;27;20846;-78
2023/05/27 04:50:08;;;;;;;15.30;5.90;;;8.70;99.90;;;;;;5142834;27;20195;-78
2023/05/27 04:52:37;;;;;;;16.67;5.23;;;8.80;99.90;;;;;;5132061;27;20203;-77
2023/05/27 04:55:05;;;;;;;16.73;5.20;;;8.80;99.90;;;;;;5132620;27;20244;-78
2023/05/27 04:57:31;;;;;;;17.60;6.17;;;8.70;99.90;;;;;;5140180;27;20212;-76
2023/05/27 05:00:18;;;;;;;17.80;5.70;;;8.70;99.90;;;;;;5134415;27;20197;-77
2023/05/27 05:02:47;;;;;;;18.83;6.07;;;8.80;99.90;;;;;;5136327;27;20202;-75
2023/05/27 05:05:15;;;;;;;15.20;6.20;;;8.90;99.90;;;;;;5120440;27;20659;-75
2023/05/27 05:07:43;;;;;;;17.77;5.57;;;9.20;99.90;;;;;;5123833;27;20205;-77
2023/05/27 05:10:11;;;;;;;15.20;5.17;;;9.20;99.90;;;;;;5117926;27;20264;-77
2023/05/27 05:12:38;;;;;;;16.00;5.47;;;9.20;99.90;;;;;;5121250;27;20578;-77
2023/05/27 05:15:06;;;;;;;20.23;5.97;;;9.30;99.90;;;;;;5113262;28;20225;-77
2023/05/27 05:17:33;;;;;;;17.90;5.50;;;9.60;99.90;;;;;;5127272;27;20212;-77
2023/05/27 05:20:02;;;;;;;15.57;5.33;;;9.80;99.90;;;;;;5129315;27;20203;-77
2023/05/27 05:22:29;;;;;;;18.43;5.77;;;9.80;99.90;;;;;;5138804;27;23744;-77
2023/05/27 05:24:56;;;;;;;19.00;6.13;;;10.40;99.90;;;;;;5144049;27;20228;-76
2023/05/27 05:27:23;;;;;;;16.57;5.57;;;11.10;99.90;;;;;;5134938;27;20193;-77
2023/05/27 05:29:50;;;;;;;15.07;5.47;;;11.30;99.90;;;;;;5156233;27;20195;-77
2023/05/27 05:32:16;;;;;;;16.63;5.27;;;10.60;99.90;;;;;;5150749;27;20215;-76
2023/05/27 05:34:43;;;;;;;13.77;5.40;;;10.40;99.90;;;;;;5134765;27;20685;-77
2023/05/27 05:37:11;;;;;;;15.37;5.97;;;10.50;99.90;;;;;;5139395;27;20200;-78
2023/05/27 05:39:38;;;;;;;20.93;6.30;;;10.30;99.90;;;;;;5133899;27;21248;-78
2023/05/27 05:42:06;;;;;;;16.63;5.73;;;10.60;99.90;;;;;;5131815;28;20216;-76
2023/05/27 05:44:34;;;;;;;16.07;5.70;;;10.90;99.90;;;;;;5135450;27;20802;-78
2023/05/27 05:47:00;;;;;;;13.60;5.83;;;11.60;99.90;;;;;;5136509;27;20198;-76
2023/05/27 05:49:27;;;;;;;15.77;5.47;;;12.60;99.90;;;;;;5147079;27;20203;-76
2023/05/27 05:51:54;;;;;;;18.37;6.80;;;12.70;99.90;;;;;;5136676;27;20216;-77
2023/05/27 05:54:22;;;;;;;14.73;5.30;;;12.40;99.90;;;;;;5147235;27;20223;-77
2023/05/27 05:56:49;;;;;;;13.60;5.63;;;11.60;99.90;;;;;;5143888;27;20204;-78
2023/05/27 05:59:16;;;;;;;12.70;5.70;;;11.20;99.90;;;;;;5150544;27;20222;-77
2023/05/27 06:01:42;;;;;;;14.60;5.47;;;11.40;99.90;;;;;;5153009;27;20203;-77
2023/05/27 06:04:09;;;;;;;17.60;6.20;;;11.40;99.90;;;;;;5162902;27;20663;-78
2023/05/27 06:06:36;;;;;;;18.43;6.07;;;11.50;99.90;;;;;;5135562;27;20652;-76
2023/05/27 06:09:03;;;;;;;15.43;5.83;;;11.50;99.90;;;;;;5136960;27;20637;-78
2023/05/27 06:11:31;;;;;;;15.60;6.07;;;11.40;99.90;;;;;;5128456;27;20232;-77
2023/05/27 06:13:58;;;;;;;16.10;5.97;;;11.30;99.90;;;;;;5130011;27;20220;-75
2023/05/27 06:16:25;;;;;;;15.57;7.07;;;11.30;99.90;;;;;;5131755;27;20303;-79
2023/05/27 06:18:53;;;;;;;17.17;6.47;;;11.20;99.90;;;;;;5128865;27;20209;-78
2023/05/27 06:21:19;;;;;;;18.10;6.90;;;11.30;99.90;;;;;;5122316;27;20228;-77
2023/05/27 06:23:46;;;;;;;16.87;6.87;;;11.40;99.90;;;;;;5131888;27;20247;-77
2023/05/27 06:26:13;;;;;;;14.43;6.87;;;11.50;99.90;;;;;;5134337;27;20211;-77
2023/05/27 06:28:41;;;;;;;17.53;7.10;;;11.50;99.90;;;;;;5133530;27;20312;-79
2023/05/27 06:31:08;;;;;;;16.43;6.63;;;11.50;99.90;;;;;;5132195;27;20209;-78
2023/05/27 06:33:35;;;;;;;19.60;7.17;;;11.60;99.90;;;;;;5130706;27;20216;-77
2023/05/27 06:36:02;;;;;;;18.07;7.40;;;11.60;99.90;;;;;;5137870;27;20610;-79
2023/05/27 06:38:28;;;;;;;14.37;6.83;;;11.60;99.90;;;;;;5126076;27;20236;-79
2023/05/27 06:40:55;;;;;;;20.00;7.53;;;11.60;99.90;;;;;;5136840;27;20196;-78
2023/05/27 06:43:22;;;;;;;18.23;6.97;;;11.80;99.90;;;;;;5129687;27;20200;-80
2023/05/27 06:45:50;;;;;;;18.37;7.17;;;11.80;99.90;;;;;;5135767;27;20204;-78
2023/05/27 06:48:17;;;;;;;15.17;7.17;;;11.90;99.90;;;;;;5130137;27;20557;-78
2023/05/27 06:50:44;;;;;;;21.40;7.13;;;12.00;99.90;;;;;;5131627;27;20200;-79
2023/05/27 06:53:11;;;;;;;20.23;7.67;;;11.90;99.90;;;;;;5128134;27;20213;-78
2023/05/27 06:55:37;;;;;;;19.63;7.73;;;11.90;99.90;;;;;;5126910;27;20216;-77
2023/05/27 06:58:05;;;;;;;16.97;6.70;;;11.90;99.90;;;;;;5125325;27;20197;-79
2023/05/27 07:00:32;;;;;;;17.37;7.07;;;12.10;99.90;;;;;;5120446;27;20208;-79
2023/05/27 07:03:01;;;;;;;24.30;8.80;;;12.00;99.90;;;;;;5123837;27;20201;-77
2023/05/27 07:05:28;;;;;;;16.63;6.57;;;12.10;99.90;;;;;;5125738;27;20248;-78
2023/05/27 07:07:54;;;;;;;17.50;6.83;;;12.00;99.90;;;;;;5132213;27;20268;-78
2023/05/27 07:10:21;;;;;;;18.03;7.57;;;12.00;99.90;;;;;;5125804;27;20205;-79
2023/05/27 07:12:48;;;;;;;18.23;7.20;;;12.20;99.90;;;;;;5128529;27;20279;-79
2023/05/27 07:15:15;;;;;;;17.13;8.57;;;12.00;99.90;;;;;;5136996;27;20224;-79
2023/05/27 07:17:46;;;;;;;18.67;7.17;;;12.30;99.90;;;;;;5155057;22;20296;-89
2023/05/27 07:20:15;;;;;;;19.97;7.70;;;12.50;99.90;;;;;;5143901;27;20225;-87
2023/05/27 07:22:56;;;;;;;19.43;7.27;;;12.70;99.90;;;;;;5130916;27;20241;-88
2023/05/27 07:25:33;;;;;;;20.67;8.27;;;12.70;99.90;;;;;;5118141;28;20201;-88
2023/05/27 07:28:08;;;;;;;18.43;7.43;;;12.70;99.90;;;;;;5119935;28;20211;-89
2023/05/27 07:30:35;;;;;;;19.60;7.83;;;12.70;99.90;;;;;;5134553;27;20207;-89
2023/05/27 07:33:05;;;;;;;18.97;7.20;;;12.90;99.90;;;;;;5125624;27;20700;-88
2023/05/27 07:35:33;;;;;;;17.73;7.10;;;12.80;99.90;;;;;;5095971;27;20217;-89
2023/05/27 07:38:03;;;;;;;18.53;7.30;;;13.00;99.90;;;;;;5094387;28;20202;-89
2023/05/27 07:40:30;;;;;;;20.07;7.13;;;13.00;99.90;;;;;;5102376;27;20292;-89
2023/05/27 07:42:57;;;;;;;18.43;7.27;;;13.20;99.90;;;;;;5109582;27;20275;-89
2023/05/27 07:45:33;;;;;;;14.47;7.07;;;13.30;99.90;;;;;;5103042;28;20193;-89
2023/05/27 07:48:00;;;;;;;13.77;6.73;;;13.30;99.90;;;;;;5096572;27;20213;-89
2023/05/27 07:50:29;;;;;;;15.67;6.90;;;13.40;99.90;;;;;;5094120;28;20300;-89
2023/05/27 07:53:00;;;;;;;17.87;7.17;;;13.50;99.90;;;;;;5093256;28;20252;-89
2023/05/27 07:55:38;;;;;;;17.20;7.37;;;13.60;99.90;;;;;;5094845;28;20218;-88
2023/05/27 07:58:21;;;;;;;21.60;7.43;;;13.40;99.90;;;;;;5094566;28;20284;-90
2023/05/27 08:01:01;;;;;;;15.73;6.80;;;13.40;99.90;;;;;;5093427;28;20209;-90
2023/05/27 08:03:28;;;;;;;16.67;6.67;;;13.70;99.90;;;;;;5113200;27;20661;-90
2023/05/27 08:05:59;;;;;;;18.27;6.30;;;13.60;99.90;;;;;;5125021;27;20237;-90
2023/05/27 08:08:30;;;;;;;19.03;7.50;;;13.90;99.90;;;;;;5108348;27;20209;-89
2023/05/27 08:10:57;;;;;;;17.37;7.33;;;13.60;99.90;;;;;;5102398;28;20241;-90
2023/05/27 08:13:30;;;;;;;14.77;5.93;;;13.80;99.90;;;;;;5106864;28;20701;-89
2023/05/27 08:16:04;;;;;;;12.30;5.67;;;14.00;99.90;;;;;;5107684;28;20225;-90
2023/05/27 08:18:31;;;;;;;19.67;6.33;;;14.10;99.90;;;;;;5103011;28;20212;-90
2023/05/27 08:21:00;;;;;;;14.97;5.93;;;14.10;99.90;;;;;;5101196;28;20300;-90
2023/05/27 08:23:29;;;;;;;13.67;5.63;;;14.30;99.90;;;;;;5108703;28;20209;-90
2023/05/27 08:26:05;;;;;;;12.88;5.60;;;14.10;99.90;;;;;;5107581;28;20190;-89
2023/05/27 08:28:39;;;;;;;15.97;5.43;;;14.20;99.90;;;;;;5112609;27;20235;-90
2023/05/27 08:31:10;;;;;;;13.50;4.77;;;14.40;99.90;;;;;;5097918;28;20216;-89
2023/05/27 08:33:39;;;;;;;17.40;6.87;;;14.30;99.90;;;;;;5109058;28;20209;-89
2023/05/27 08:36:07;;;;;;;19.23;7.77;;;14.20;99.90;;;;;;5113454;27;20686;-89
2023/05/27 08:38:35;;;;;;;15.97;5.50;;;14.40;99.90;;;;;;5133214;27;20204;-88
2023/05/27 08:41:15;;;;;;;14.50;5.20;;;14.50;99.90;;;;;;5133005;27;20228;-89
2023/05/27 08:43:45;;;;;;;14.73;4.80;;;14.30;99.90;;;;;;5108185;28;20231;-89
2023/05/27 08:46:25;;;;;;;13.93;5.00;;;14.60;99.90;;;;;;5106837;27;20285;-90
2023/05/27 08:49:41;;;;;;;18.17;6.00;;;14.70;99.90;;;;;;5103119;28;20228;-89
2023/05/27 08:52:10;;;;;;;14.13;5.43;;;15.20;99.90;;;;;;5102912;28;20274;-89
2023/05/27 08:54:51;;;;;;;14.20;5.33;;;15.20;99.90;;;;;;5098554;28;20225;-89
2023/05/27 09:00:38;;;;;;;17.20;5.43;;;15.60;99.90;;;;;;5076722;27;20215;-89
2023/05/27 09:03:07;;;;;;;11.50;5.65;;;16.20;99.90;;;;;;5099123;28;20201;-90
2023/05/27 09:05:48;;;;;;;15.25;5.90;;;16.30;99.90;;;;;;5101628;27;20206;-90
2023/05/27 09:08:17;;;;;;;15.77;5.20;;;16.20;99.90;;;;;;5104284;28;20220;-89
2023/05/27 09:10:47;;;;;;;12.77;5.05;;;16.10;99.90;;;;;;5107251;28;20215;-90
2023/05/27 09:13:29;;;;;;;15.52;5.82;;;16.40;99.90;;;;;;5110571;28;20197;-90
2023/05/27 09:16:13;;;;;;;13.23;5.40;;;16.60;99.90;;;;;;5113840;27;20225;-89
2023/05/27 09:18:43;;;;;;;12.05;4.75;;;16.50;99.90;;;;;;5108810;28;20292;-89
2023/05/27 09:21:41;;;;;;;11.82;5.63;;;16.70;99.90;;;;;;5100240;27;20221;-90
2023/05/27 09:24:10;;;;;;;15.98;5.57;;;17.00;99.90;;;;;;5093701;28;20212;-89
2023/05/27 09:26:43;;;;;;;12.02;5.53;;;16.90;99.90;;;;;;5097859;28;20213;-90
2023/05/27 09:29:10;;;;;;;11.80;5.05;;;17.20;99.90;;;;;;5102977;28;20280;-90
2023/05/27 09:31:40;;;;;;;13.63;5.85;;;17.20;99.90;;;;;;5092977;28;20267;-89
2023/05/27 09:34:17;;;;;;;10.65;5.35;;;17.10;99.90;;;;;;5111703;27;20694;-89
2023/05/27 09:36:49;;;;;;;14.13;5.85;;;17.20;99.90;;;;;;5133187;27;20235;-89
2023/05/27 09:39:23;;;;;;;13.07;5.47;;;17.40;99.90;;;;;;5127769;27;20224;-89
2023/05/27 09:42:05;;;;;;;13.07;5.35;;;17.10;99.90;;;;;;5133170;27;20227;-88
2023/05/27 09:44:40;;;;;;;12.50;5.00;;;17.30;99.90;;;;;;5108665;28;20201;-89
2023/05/27 09:47:09;;;;;;;13.27;4.80;;;17.30;99.90;;;;;;5099327;28;20200;-89
2023/05/27 09:49:39;;;;;;;13.43;5.30;;;17.20;99.90;;;;;;5115993;28;20207;-86
2023/05/27 09:52:13;;;;;;;13.80;5.53;;;17.70;99.90;;;;;;5111858;28;20327;-86
2023/05/27 09:54:41;;;;;;;13.07;5.10;;;17.60;99.90;;;;;;5107544;28;20268;-88
2023/05/27 09:57:15;;;;;;;11.75;4.95;;;17.60;99.90;;;;;;5102772;28;20200;-88
2023/05/27 09:59:43;;;;;;;10.82;5.35;;;18.10;99.90;;;;;;5108921;28;20696;-87
2023/05/27 10:02:13;;;;;;;12.68;5.22;;;18.00;99.90;;;;;;5108468;28;20216;-88
2023/05/27 10:04:41;;;;;;;11.30;4.35;;;17.80;99.90;;;;;;5105034;28;20684;-89
2023/05/27 10:07:08;;;;;;;10.43;4.38;;;18.20;99.90;;;;;;5112352;28;20194;-86
2023/05/27 10:09:35;;;;;;;11.85;4.50;;;18.40;99.90;;;;;;5097550;28;20198;-88
2023/05/27 10:12:03;;;;;;;10.43;5.18;;;18.50;99.90;;;;;;5125477;28;20224;-89
2023/05/27 10:14:35;;;;;;;12.07;4.28;;;18.30;99.90;;;;;;5132788;28;20750;-87
2023/05/27 10:17:02;;;;;;;10.00;4.53;;;18.20;99.90;;;;;;5099313;28;20205;-88
2023/05/27 10:19:29;;;;;;;12.57;4.45;;;18.60;99.90;;;;;;5091815;28;20215;-89
2023/05/27 10:22:07;;;;;;;9.27;3.92;;;18.10;99.90;;;;;;5105190;28;20220;-89
2023/05/27 10:24:40;;;;;;;8.52;4.15;;;18.30;99.90;;;;;;5106806;28;20713;-89
2023/05/27 10:27:10;;;;;;;12.32;4.05;;;18.20;99.90;;;;;;5117989;28;20567;-88
2023/05/27 10:29:41;;;;;;;7.25;3.80;;;18.20;99.90;;;;;;5099274;28;20335;-89
2023/05/27 10:32:13;;;;;;;10.07;3.78;;;18.70;99.90;;;;;;5091430;28;20699;-88
2023/05/27 10:34:45;;;;;;;10.75;3.70;;;18.50;1.00;;;;;;5121605;28;20220;-89
2023/05/27 10:37:25;;;;;;;10.55;3.67;;;18.60;99.90;;;;;;5116189;28;20553;-89
2023/05/27 10:39:56;;;;;;;8.52;3.92;;;19.00;1.00;;;;;;5100181;28;20292;-88
2023/05/27 10:42:24;;;;;;;9.20;3.83;;;19.00;1.00;;;;;;5109444;27;20656;-89
2023/05/27 10:45:08;;;;;;;6.88;3.35;;;19.00;99.90;;;;;;5137120;27;20279;-90
2023/05/27 10:47:38;;;;;;;9.10;3.40;;;19.40;1.00;;;;;;5120375;27;20239;-89
2023/05/27 10:50:15;;;;;;;12.20;4.10;;;19.30;1.00;;;;;;5095178;28;20596;-88
2023/05/27 10:52:42;;;;;;;9.88;3.50;;;18.60;99.90;;;;;;5110855;27;20653;-88
2023/05/27 10:55:13;;;;;;;9.75;3.70;;;18.50;1.00;;;;;;5135971;27;20216;-89
2023/05/27 11:00:45;;;;;;;7.22;3.17;;;18.70;1.00;;;;;;5134535;27;20200;-89
2023/05/27 11:03:18;;;;;;;5.82;3.10;;;18.70;1.00;;;;;;5118517;27;20189;-88
2023/05/27 11:05:44;;;;;;;6.50;3.35;;;18.90;1.00;;;;;;5115208;28;20209;-89
2023/05/27 11:08:13;;;;;;;7.25;3.33;;;18.70;1.00;;;;;;5125372;27;20202;-89
2023/05/27 11:10:42;;;;;;;9.63;3.85;;;18.60;1.00;;;;;;5135951;27;20197;-88
2023/05/27 11:13:14;;;;;;;9.07;3.53;;;19.00;1.00;;;;;;5135448;27;20196;-88
2023/05/27 11:15:42;;;;;;;6.88;3.60;;;19.50;60.80;;;;;;5118215;27;20669;-90
2023/05/27 11:18:12;;;;;;;6.35;2.85;;;19.70;1.00;;;;;;5108671;28;20227;-89
2023/05/27 11:20:40;;;;;;;9.18;3.50;;;19.00;99.70;;;;;;5112356;28;20261;-87
2023/05/27 11:23:09;;;;;;;9.65;3.85;;;19.00;1.00;;;;;;5108836;27;20276;-89
2023/05/27 11:25:43;;;;;;;8.85;3.92;;;18.90;99.90;;;;;;5113681;28;20205;-89
2023/05/27 11:28:18;;;;;;;8.10;3.42;;;19.00;1.00;;;;;;5110996;27;20230;-89
2023/05/27 11:30:45;;;;;;;7.90;3.45;;;18.50;1.00;;;;;;5124357;27;20208;-86
2023/05/27 11:33:13;;;;;;;8.50;3.60;;;18.80;99.90;;;;;;5111583;27;20636;-89
2023/05/27 11:35:43;;;;;;;10.75;3.90;;;19.00;55.30;;;;;;5113036;27;20577;-89
2023/05/27 11:38:22;;;;;;;11.18;3.50;;;19.00;1.00;;;;;;5104372;27;20206;-88
2023/05/27 11:43:31;;;;;;;7.40;3.72;;;19.40;1.00;;;;;;5103219;27;20192;-89
2023/05/27 11:46:06;;;;;;;7.50;3.42;;;19.60;99.90;;;;;;5112778;28;20197;-89
2023/05/27 11:48:44;;;;;;;9.05;3.50;;;19.20;1.00;;;;;;5106310;28;20192;-89
2023/05/27 11:51:14;;;;;;;10.85;3.67;;;19.40;99.90;;;;;;5120501;27;20216;-89
2023/05/27 11:53:42;;;;;;;8.30;3.60;;;19.10;1.00;;;;;;5119104;27;20203;-88
2023/05/27 11:56:09;;;;;;;7.13;3.53;;;19.40;76.60;;;;;;5096221;28;20217;-88
2023/05/27 11:58:40;;;;;;;10.05;3.45;;;19.60;1.00;;;;;;5098639;28;20213;-89
2023/05/27 12:01:10;;;;;;;9.70;3.95;;;19.90;1.00;;;;;;5109822;27;20899;-89
2023/05/27 12:03:47;;;;;;;8.93;3.42;;;19.60;99.90;;;;;;5092715;28;20305;-89
2023/05/27 12:06:14;;;;;;;7.10;3.22;;;19.70;1.00;;;;;;5115167;27;20204;-88
2023/05/27 12:11:50;;;;;;;8.77;3.85;;;20.00;8.90;;;;;;5025215;28;20713;-90
2023/05/27 12:15:14;;;;;;;7.40;3.40;;;19.60;99.90;;;;;;5091491;28;20197;-89
2023/05/27 12:17:57;;;;;;;7.32;3.35;;;19.30;1.00;;;;;;5009874;28;20235;-88
2023/05/27 12:20:28;;;;;;;7.35;3.25;;;19.40;92.30;;;;;;5085200;28;20298;-88
2023/05/27 12:23:00;;;;;;;11.18;3.80;;;20.00;1.00;;;;;;5092102;28;20225;-88
2023/05/27 12:25:32;;;;;;;7.05;3.35;;;19.90;1.00;;;;;;5111399;28;20276;-89
2023/05/27 12:28:24;;;;;;;10.82;3.42;;;19.80;1.00;;;;;;5112955;28;20630;-88
2023/05/27 12:30:51;;;;;;;8.18;3.67;;;19.90;1.00;;;;;;5092286;28;20288;-88
2023/05/27 12:33:18;;;;;;;9.90;4.13;;;19.90;99.90;;;;;;5101152;27;20237;-89
2023/05/27 12:35:55;;;;;;;9.32;3.78;;;19.80;1.00;;;;;;5107096;27;20213;-89
2023/05/27 12:38:25;;;;;;;7.25;3.97;;;19.90;1.00;;;;;;5112814;27;20204;-89
2023/05/27 12:40:59;;;;;;;9.15;3.50;;;20.20;99.90;;;;;;5132781;27;20204;-88
2023/05/27 12:43:30;;;;;;;6.05;3.28;;;19.70;1.00;;;;;;5111976;27;20198;-89
2023/05/27 12:49:27;;;;;;;8.38;3.20;;;19.60;67.80;;;;;;5137698;27;20287;-89
2023/05/27 12:52:05;;;;;;;9.38;3.42;;;19.80;1.00;;;;;;5093865;28;20266;-89
2023/05/27 12:54:32;;;;;;;9.25;3.60;;;19.90;74.40;;;;;;5100830;27;20263;-89
2023/05/27 12:57:06;;;;;;;9.95;3.33;;;20.20;1.00;;;;;;5099393;28;20824;-87
2023/05/27 12:59:42;;;;;;;8.75;3.63;;;20.30;1.00;;;;;;5109529;28;20190;-88
2023/05/27 13:02:10;;;;;;;7.60;3.25;;;20.40;1.00;;;;;;5092528;28;20229;-87
2023/05/27 13:04:37;;;;;;;9.07;4.30;;;20.20;1.00;;;;;;5103507;27;20213;-85
2023/05/27 13:07:42;;;;;;;10.35;4.05;;;20.10;1.00;;;;;;5107296;28;20192;-87
2023/05/27 13:10:14;;;;;;;8.85;3.42;;;20.70;99.90;;;;;;5114260;27;20208;-87
2023/05/27 13:12:41;;;;;;;7.35;3.40;;;20.40;1.00;;;;;;5106351;27;20228;-89